createdAt,value
2017-03-21T00:00:34.268Z,999.95
2017-03-21T00:01:43.898Z,999.85
2017-03-21T00:02:54.154Z,999.9
2017-03-21T00:04:04.105Z,999.96
2017-03-21T00:05:13.737Z,999.9
2017-03-21T00:06:23.992Z,999.93
2017-03-21T00:07:33.620Z,999.86
2017-03-21T00:08:43.283Z,999.95
2017-03-21T00:09:53.594Z,999.96
2017-03-21T00:11:03.856Z,1000.04
2017-03-21T00:12:13.799Z,999.95
2017-03-21T00:13:23.746Z,999.89
2017-03-21T00:14:33.384Z,1000
2017-03-21T00:15:43.645Z,1000.02
2017-03-21T00:16:53.906Z,999.86
2017-03-21T00:18:03.854Z,999.9
2017-03-21T00:19:13.801Z,999.89
2017-03-21T00:20:23.741Z,999.9
2017-03-21T00:21:34.046Z,999.91
2017-03-21T00:22:43.677Z,999.92
2017-03-21T00:23:53.937Z,999.93
2017-03-21T00:25:04.204Z,999.95
2017-03-21T00:26:14.456Z,999.95
2017-03-21T00:27:23.765Z,999.93
2017-03-21T00:28:33.079Z,999.99
2017-03-21T00:29:43.349Z,999.93
2017-03-21T00:30:53.620Z,999.91
2017-03-21T00:32:03.254Z,999.89
2017-03-21T00:33:13.200Z,999.91
2017-03-21T00:34:22.838Z,999.94
2017-03-21T00:35:32.481Z,999.93
2017-03-21T00:36:42.738Z,999.94
2017-03-21T00:37:53.000Z,1000.09
2017-03-21T00:39:02.947Z,999.99
2017-03-21T00:40:13.208Z,999.89
2017-03-21T00:41:23.154Z,999.9
2017-03-21T00:42:33.095Z,999.99
2017-03-21T00:43:43.039Z,999.98
2017-03-21T00:44:52.990Z,999.92
2017-03-21T00:46:02.622Z,999.98
2017-03-21T00:47:12.875Z,999.95
2017-03-21T00:48:23.138Z,999.97
2017-03-21T00:49:32.772Z,1000
2017-03-21T00:50:43.032Z,999.98
2017-03-21T00:51:53.288Z,1000.02
2017-03-21T00:53:03.231Z,1000.01
2017-03-21T00:54:13.501Z,999.91
2017-03-21T00:55:23.450Z,999.97
2017-03-21T00:56:33.078Z,999.98
2017-03-21T00:57:43.339Z,1000.02
2017-03-21T00:58:53.292Z,1000.01
2017-03-21T01:00:03.564Z,1000.08
2017-03-21T01:01:13.514Z,1000.09
2017-03-21T01:02:23.137Z,1000.07
2017-03-21T01:03:33.392Z,1000.05
2017-03-21T01:04:43.341Z,1000.08
2017-03-21T01:05:53.286Z,1000.12
2017-03-21T01:07:02.910Z,1000.07
2017-03-21T01:08:13.162Z,1000.06
2017-03-21T01:09:23.104Z,1000.14
2017-03-21T01:10:33.058Z,1000.03
2017-03-21T01:11:43.322Z,1000.13
2017-03-21T01:12:53.261Z,1000.03
2017-03-21T01:14:02.580Z,1000.02
2017-03-21T01:15:12.567Z,1000.02
2017-03-21T01:16:22.818Z,1000.02
2017-03-21T01:17:32.443Z,1000.02
2017-03-21T01:18:42.715Z,1000.04
2017-03-21T01:19:52.973Z,1000.08
2017-03-21T01:21:03.233Z,1000.03
2017-03-21T01:22:13.209Z,1000.07
2017-03-21T01:23:23.160Z,1000.09
2017-03-21T01:24:32.798Z,1000.04
2017-03-21T01:25:43.064Z,1000.02
2017-03-21T01:26:53.004Z,999.97
2017-03-21T01:28:03.263Z,1000.08
2017-03-21T01:29:13.568Z,1000.02
2017-03-21T01:30:23.832Z,1000.06
2017-03-21T01:31:34.089Z,1000.05
2017-03-21T01:32:44.375Z,1000.06
2017-03-21T01:33:54.639Z,1000.1
2017-03-21T01:35:04.584Z,1000.11
2017-03-21T01:36:14.837Z,1000.16
2017-03-21T01:37:24.463Z,1000.16
2017-03-21T01:38:34.400Z,1000.1
2017-03-21T01:39:44.659Z,1000.24
2017-03-21T01:40:54.920Z,1000.15
2017-03-21T01:42:04.861Z,1000.14
2017-03-21T01:43:14.807Z,1000.08
2017-03-21T01:44:25.078Z,1000.07
2017-03-21T01:45:34.708Z,1000.11
2017-03-21T01:46:44.967Z,1000.11
2017-03-21T01:47:55.225Z,1000.12
2017-03-21T01:49:05.491Z,1000.08
2017-03-21T01:50:15.438Z,1000.08
2017-03-21T01:51:25.698Z,1000.1
2017-03-21T01:52:35.961Z,1000.08
2017-03-21T01:53:46.230Z,1000.02
2017-03-21T01:54:56.253Z,1000.07
2017-03-21T01:56:05.886Z,1000.1
2017-03-21T01:57:15.822Z,1000.04
2017-03-21T01:58:25.763Z,1000.01
2017-03-21T01:59:35.717Z,1000.05
2017-03-21T02:00:45.977Z,1000
2017-03-21T02:01:56.230Z,999.98
2017-03-21T02:03:06.173Z,1000.08
2017-03-21T02:04:16.122Z,1000.07
2017-03-21T02:05:26.069Z,1000.07
2017-03-21T02:06:36.024Z,1000.09
2017-03-21T02:07:45.970Z,1000.08
2017-03-21T02:08:55.599Z,1000.12
2017-03-21T02:10:04.924Z,1000.11
2017-03-21T02:11:15.186Z,1000.05
2017-03-21T02:12:25.439Z,1000
2017-03-21T02:13:35.696Z,1000.06
2017-03-21T02:14:45.957Z,1000.09
2017-03-21T02:15:55.903Z,1000.15
2017-03-21T02:17:05.871Z,1000.14
2017-03-21T02:18:15.814Z,1000.11
2017-03-21T02:19:25.494Z,1000.08
2017-03-21T02:20:35.455Z,1000.06
2017-03-21T02:21:45.401Z,1000.1
2017-03-21T02:22:55.657Z,1000.06
2017-03-21T02:24:05.335Z,1000.08
2017-03-21T02:25:15.595Z,1000.05
2017-03-21T02:26:25.853Z,1000.04
2017-03-21T02:27:35.799Z,1000.01
2017-03-21T02:28:46.058Z,1000.03
2017-03-21T02:29:56.317Z,1000.07
2017-03-21T02:31:06.579Z,1000.02
2017-03-21T02:32:16.850Z,1000.02
2017-03-21T02:33:27.102Z,999.98
2017-03-21T02:34:36.733Z,999.94
2017-03-21T02:35:47.008Z,999.99
2017-03-21T02:36:56.949Z,1000
2017-03-21T02:38:07.201Z,1000
2017-03-21T02:39:16.840Z,1000.08
2017-03-21T02:40:26.785Z,999.95
2017-03-21T02:41:36.733Z,1000.02
2017-03-21T02:42:46.991Z,1000.03
2017-03-21T02:43:56.942Z,1000
2017-03-21T02:45:07.215Z,1000.06
2017-03-21T02:46:17.151Z,999.96
2017-03-21T02:47:26.783Z,1000
2017-03-21T02:48:36.728Z,1000.04
2017-03-21T02:49:46.990Z,1000.02
2017-03-21T02:50:56.622Z,1000
2017-03-21T02:52:06.571Z,999.98
2017-03-21T02:53:16.835Z,1000.08
2017-03-21T02:54:26.472Z,1000.03
2017-03-21T02:55:36.730Z,1000.09
2017-03-21T02:56:47.018Z,1000.05
2017-03-21T02:57:57.279Z,1000.11
2017-03-21T02:59:07.546Z,1000.15
2017-03-21T03:00:17.190Z,1000.08
2017-03-21T03:01:27.444Z,1000.07
2017-03-21T03:02:37.389Z,1000.09
2017-03-21T03:03:47.344Z,1000.09
2017-03-21T03:04:57.611Z,1000.21
2017-03-21T03:06:07.868Z,1000.15
2017-03-21T03:07:17.177Z,1000.11
2017-03-21T03:08:27.438Z,1000.14
2017-03-21T03:09:37.390Z,1000.15
2017-03-21T03:10:47.018Z,1000.12
2017-03-21T03:11:56.956Z,1000.22
2017-03-21T03:13:07.224Z,1000.14
2017-03-21T03:14:17.174Z,1000.13
2017-03-21T03:15:27.436Z,1000.16
2017-03-21T03:16:37.058Z,1000.23
2017-03-21T03:17:47.315Z,1000.2
2017-03-21T03:18:57.266Z,1000.21
2017-03-21T03:20:07.217Z,1000.2
2017-03-21T03:21:17.474Z,1000.21
2017-03-21T03:22:27.727Z,1000.26
2017-03-21T03:23:37.361Z,1000.25
2017-03-21T03:24:47.308Z,1000.26
2017-03-21T03:25:56.624Z,1000.27
2017-03-21T03:27:06.252Z,1000.23
2017-03-21T03:28:16.511Z,1000.3
2017-03-21T03:29:26.461Z,1000.3
2017-03-21T03:30:36.412Z,1000.21
2017-03-21T03:31:46.665Z,1000.23
2017-03-21T03:32:56.928Z,1000.25
2017-03-21T03:34:06.876Z,1000.28
2017-03-21T03:35:17.135Z,1000.28
2017-03-21T03:36:27.392Z,1000.26
2017-03-21T03:37:37.332Z,1000.25
2017-03-21T03:38:46.997Z,1000.38
2017-03-21T03:39:56.629Z,1000.3
2017-03-21T03:41:06.570Z,1000.32
2017-03-21T03:42:16.515Z,1000.24
2017-03-21T03:43:26.458Z,1000.24
2017-03-21T03:44:36.726Z,1000.29
2017-03-21T03:45:46.976Z,1000.3
2017-03-21T03:46:56.913Z,1000.34
2017-03-21T03:48:07.170Z,1000.32
2017-03-21T03:49:17.438Z,1000.35
2017-03-21T03:50:27.700Z,1000.36
2017-03-21T03:51:37.966Z,1000.33
2017-03-21T03:52:47.599Z,1000.32
2017-03-21T03:53:57.578Z,1000.35
2017-03-21T03:55:07.838Z,1000.36
2017-03-21T03:56:18.090Z,1000.37
2017-03-21T03:57:28.349Z,1000.36
2017-03-21T03:58:38.613Z,1000.32
2017-03-21T03:59:48.568Z,1000.4
2017-03-21T04:00:58.513Z,1000.42
2017-03-21T04:02:08.809Z,1000.37
2017-03-21T04:03:18.765Z,1000.39
2017-03-21T04:04:28.713Z,1000.45
2017-03-21T04:05:38.682Z,1000.49
2017-03-21T04:06:48.622Z,1000.43
2017-03-21T04:07:58.244Z,1000.48
2017-03-21T04:09:08.198Z,1000.48
2017-03-21T04:10:18.465Z,1000.54
2017-03-21T04:11:28.088Z,1000.56
2017-03-21T04:12:38.345Z,1000.6
2017-03-21T04:13:48.290Z,1000.56
2017-03-21T04:14:58.239Z,1000.5
2017-03-21T04:16:07.867Z,1000.58
2017-03-21T04:17:18.129Z,1000.6
2017-03-21T04:18:28.071Z,1000.49
2017-03-21T04:19:38.347Z,1000.56
2017-03-21T04:20:48.606Z,1000.44
2017-03-21T04:21:58.550Z,1000.49
2017-03-21T04:23:08.491Z,1000.52
2017-03-21T04:24:18.446Z,1000.54
2017-03-21T04:25:28.715Z,1000.47
2017-03-21T04:26:38.711Z,1000.54
2017-03-21T04:27:48.658Z,1000.61
2017-03-21T04:28:58.606Z,1000.52
2017-03-21T04:30:08.873Z,1000.45
2017-03-21T04:31:19.131Z,1000.51
2017-03-21T04:32:29.073Z,1000.5
2017-03-21T04:33:39.017Z,1000.52
2017-03-21T04:34:49.285Z,1000.6
2017-03-21T04:35:59.550Z,1000.62
2017-03-21T04:37:09.800Z,1000.65
2017-03-21T04:38:19.426Z,1000.63
2017-03-21T04:39:29.687Z,1000.61
2017-03-21T04:40:39.972Z,1000.62
2017-03-21T04:41:49.912Z,1000.66
2017-03-21T04:43:00.186Z,1000.6
2017-03-21T04:44:10.448Z,1000.69
2017-03-21T04:45:20.400Z,1000.65
2017-03-21T04:46:30.352Z,1000.69
2017-03-21T04:47:40.289Z,1000.71
2017-03-21T04:48:50.595Z,1000.82
2017-03-21T04:50:00.859Z,1000.69
2017-03-21T04:51:10.800Z,1000.68
2017-03-21T04:52:21.054Z,1000.7
2017-03-21T04:53:30.997Z,1000.68
2017-03-21T04:54:40.641Z,1000.74
2017-03-21T04:55:50.587Z,1000.74
2017-03-21T04:57:00.851Z,1000.74
2017-03-21T04:58:10.802Z,1000.81
2017-03-21T04:59:20.749Z,1000.75
2017-03-21T05:00:31.015Z,1000.77
2017-03-21T05:01:40.958Z,1000.77
2017-03-21T05:02:51.209Z,1000.79
2017-03-21T05:04:01.475Z,1000.79
2017-03-21T05:05:11.745Z,1000.79
2017-03-21T05:06:22.004Z,1000.78
2017-03-21T05:07:32.258Z,1000.78
2017-03-21T05:08:42.220Z,1000.82
2017-03-21T05:09:52.172Z,1000.82
2017-03-21T05:11:02.434Z,1000.86
2017-03-21T05:12:12.689Z,1000.86
2017-03-21T05:13:22.947Z,1000.87
2017-03-21T05:14:32.910Z,1000.93
2017-03-21T05:15:43.169Z,1000.88
2017-03-21T05:16:53.123Z,1000.92
2017-03-21T05:18:03.377Z,1000.91
2017-03-21T05:19:13.328Z,1000.98
2017-03-21T05:20:23.626Z,1000.9
2017-03-21T05:21:33.884Z,1000.89
2017-03-21T05:22:43.512Z,1000.88
2017-03-21T05:23:53.771Z,1001.01
2017-03-21T05:25:04.034Z,1000.96
2017-03-21T05:26:13.982Z,1001.02
2017-03-21T05:27:24.237Z,1000.97
2017-03-21T05:28:34.181Z,1000.99
2017-03-21T05:29:43.826Z,1001
2017-03-21T05:30:54.083Z,1000.99
2017-03-21T05:32:04.031Z,1001.03
2017-03-21T05:33:14.289Z,1001.05
2017-03-21T05:34:24.238Z,1001.01
2017-03-21T05:35:34.498Z,1001.04
2017-03-21T05:36:44.445Z,1000.98
2017-03-21T05:37:54.390Z,1001.01
2017-03-21T05:39:04.339Z,1001.04
2017-03-21T05:40:13.969Z,1001.03
2017-03-21T05:41:24.221Z,1001.05
2017-03-21T05:42:34.162Z,1001.06
2017-03-21T05:43:44.110Z,1001.06
2017-03-21T05:44:53.746Z,1001.09
2017-03-21T05:46:03.696Z,1001.11
2017-03-21T05:47:13.967Z,1001.12
2017-03-21T05:48:24.233Z,1001.11
2017-03-21T05:49:33.868Z,1001.14
2017-03-21T05:50:44.122Z,1001.17
2017-03-21T05:51:54.069Z,1001.14
2017-03-21T05:53:03.708Z,1001.1
2017-03-21T05:54:13.975Z,1001.15
2017-03-21T05:55:24.238Z,1001.15
2017-03-21T05:56:34.529Z,1001.18
2017-03-21T05:57:44.476Z,1001.18
2017-03-21T05:58:54.740Z,1001.21
2017-03-21T06:00:05.010Z,1001.25
2017-03-21T06:01:15.268Z,1001.2
2017-03-21T06:02:25.529Z,1001.29
2017-03-21T06:03:35.782Z,1001.19
2017-03-21T06:04:46.048Z,1001.2
2017-03-21T06:05:56.301Z,1001.22
2017-03-21T06:07:05.924Z,1001.27
2017-03-21T06:08:16.187Z,1001.19
2017-03-21T06:09:25.819Z,1001.21
2017-03-21T06:10:35.759Z,1001.21
2017-03-21T06:11:46.013Z,1001.22
2017-03-21T06:12:55.972Z,1001.24
2017-03-21T06:14:06.232Z,1001.29
2017-03-21T06:15:16.178Z,1001.28
2017-03-21T06:16:26.119Z,1001.29
2017-03-21T06:17:36.058Z,1001.2
2017-03-21T06:18:46.007Z,1001.29
2017-03-21T06:19:56.267Z,1001.32
2017-03-21T06:21:05.900Z,1001.31
2017-03-21T06:22:15.849Z,1001.32
2017-03-21T06:23:25.807Z,1001.3
2017-03-21T06:24:35.770Z,1001.39
2017-03-21T06:25:46.026Z,1001.31
2017-03-21T06:26:56.283Z,1001.28
2017-03-21T06:28:06.226Z,1001.37
2017-03-21T06:29:16.494Z,1001.23
2017-03-21T06:30:26.440Z,1001.25
2017-03-21T06:31:36.377Z,1001.3
2017-03-21T06:32:46.633Z,1001.33
2017-03-21T06:33:56.585Z,1001.24
2017-03-21T06:35:06.532Z,1001.28
2017-03-21T06:36:16.493Z,1001.3
2017-03-21T06:37:26.120Z,1001.25
2017-03-21T06:38:35.759Z,1001.31
2017-03-21T06:39:46.025Z,1001.35
2017-03-21T06:40:56.282Z,1001.38
2017-03-21T06:42:06.543Z,1001.3
2017-03-21T06:43:16.802Z,1001.33
2017-03-21T06:44:26.750Z,1001.3
2017-03-21T06:45:37.007Z,1001.36
2017-03-21T06:46:47.259Z,1001.37
2017-03-21T06:47:56.888Z,1001.35
2017-03-21T06:49:06.840Z,1001.46
2017-03-21T06:50:17.102Z,1001.41
2017-03-21T06:51:27.357Z,1001.4
2017-03-21T06:52:37.611Z,1001.45
2017-03-21T06:53:47.883Z,1001.53
2017-03-21T06:54:57.823Z,1001.5
2017-03-21T06:56:07.767Z,1001.54
2017-03-21T06:57:17.398Z,1001.58
2017-03-21T06:58:27.036Z,1001.58
2017-03-21T06:59:37.305Z,1001.6
2017-03-21T07:00:47.268Z,1001.67
2017-03-21T07:01:57.210Z,1001.81
2017-03-21T07:03:07.153Z,1001.79
2017-03-21T07:04:17.417Z,1001.86
2017-03-21T07:05:27.047Z,1001.97
2017-03-21T07:06:36.672Z,1001.96
2017-03-21T07:07:46.615Z,1002.04
2017-03-21T07:08:56.883Z,1002.03
2017-03-21T07:10:06.827Z,1002.15
2017-03-21T07:11:17.078Z,1002.12
2017-03-21T07:12:27.020Z,1002.11
2017-03-21T07:13:36.970Z,1002.14
2017-03-21T07:14:46.926Z,1002.25
2017-03-21T07:15:57.178Z,1002.2
2017-03-21T07:17:07.123Z,1002.17
2017-03-21T07:18:17.378Z,1002.11
2017-03-21T07:19:27.327Z,1002.15
2017-03-21T07:20:36.961Z,1002.19
2017-03-21T07:21:46.897Z,1002.16
2017-03-21T07:22:57.155Z,1002.22
2017-03-21T07:24:07.424Z,1002.24
2017-03-21T07:25:17.689Z,1002.3
2017-03-21T07:26:27.323Z,1002.32
2017-03-21T07:27:37.266Z,1002.32
2017-03-21T07:28:47.236Z,1002.33
2017-03-21T07:29:56.863Z,1002.35
2017-03-21T07:31:06.809Z,1002.36
2017-03-21T07:32:16.744Z,1002.4
2017-03-21T07:33:27.006Z,1002.41
2017-03-21T07:34:36.955Z,1002.43
2017-03-21T07:35:46.891Z,1002.47
2017-03-21T07:36:56.835Z,1002.45
2017-03-21T07:38:06.144Z,1002.48
2017-03-21T07:39:16.404Z,1002.53
2017-03-21T07:40:26.359Z,1002.5
2017-03-21T07:41:36.613Z,1002.51
2017-03-21T07:42:46.240Z,1002.47
2017-03-21T07:43:56.502Z,1002.51
2017-03-21T07:45:06.451Z,1002.43
2017-03-21T07:46:16.707Z,1002.41
2017-03-21T07:47:26.962Z,1002.42
2017-03-21T07:48:36.603Z,1002.36
2017-03-21T07:49:46.555Z,1002.37
2017-03-21T07:50:56.816Z,1002.36
2017-03-21T07:52:06.757Z,1002.34
2017-03-21T07:53:16.385Z,1002.32
2017-03-21T07:54:26.650Z,1002.35
2017-03-21T07:55:36.911Z,1002.35
2017-03-21T07:56:46.876Z,1002.37
2017-03-21T07:57:56.190Z,1002.37
2017-03-21T07:59:05.820Z,1002.36
2017-03-21T08:00:15.771Z,1002.36
2017-03-21T08:01:26.021Z,1002.35
2017-03-21T08:02:35.960Z,1002.36
2017-03-21T08:03:45.909Z,1002.35
2017-03-21T08:04:56.168Z,1002.42
2017-03-21T08:06:05.801Z,1002.43
2017-03-21T08:07:15.754Z,1002.48
2017-03-21T08:08:25.702Z,1002.47
2017-03-21T08:09:35.966Z,1002.4
2017-03-21T08:10:46.224Z,1002.35
2017-03-21T08:11:55.852Z,1002.29
2017-03-21T08:13:05.808Z,1002.25
2017-03-21T08:14:15.751Z,1002.24
2017-03-21T08:15:25.697Z,1002.27
2017-03-21T08:16:35.956Z,1002.33
2017-03-21T08:17:46.212Z,1002.34
2017-03-21T08:18:56.480Z,1002.4
2017-03-21T08:20:06.427Z,1002.43
2017-03-21T08:21:16.685Z,1002.4
2017-03-21T08:22:26.632Z,1002.37
2017-03-21T08:23:36.900Z,1002.37
2017-03-21T08:24:47.164Z,1002.4
2017-03-21T08:25:57.434Z,1002.41
2017-03-21T08:27:07.691Z,1002.42
2017-03-21T08:28:17.952Z,1002.43
2017-03-21T08:29:28.218Z,1002.44
2017-03-21T08:30:38.486Z,1002.52
2017-03-21T08:31:48.433Z,1002.47
2017-03-21T08:32:58.714Z,1002.52
2017-03-21T08:34:08.972Z,1002.6
2017-03-21T08:35:19.227Z,1002.61
2017-03-21T08:36:29.481Z,1002.6
2017-03-21T08:37:39.733Z,1002.61
2017-03-21T08:38:49.674Z,1002.65
2017-03-21T08:39:59.940Z,1002.67
2017-03-21T08:41:09.564Z,1002.65
2017-03-21T08:42:19.819Z,1002.72
2017-03-21T08:43:29.758Z,1002.71
2017-03-21T08:44:39.702Z,1002.71
2017-03-21T08:45:49.652Z,1002.68
2017-03-21T08:46:59.636Z,1002.79
2017-03-21T08:48:09.577Z,1002.88
2017-03-21T08:49:19.838Z,1002.9
2017-03-21T08:50:30.097Z,1002.91
2017-03-21T08:51:40.358Z,1002.94
2017-03-21T08:52:49.980Z,1003.04
2017-03-21T08:53:59.932Z,1002.91
2017-03-21T08:55:10.183Z,1002.99
2017-03-21T08:56:20.117Z,1002.95
2017-03-21T08:57:30.383Z,1003.01
2017-03-21T08:58:40.330Z,1003.04
2017-03-21T08:59:50.270Z,1003.13
2017-03-21T09:01:00.530Z,1003.08
2017-03-21T09:02:10.780Z,1003.05
2017-03-21T09:03:21.032Z,1003.07
2017-03-21T09:04:30.979Z,1003.04
2017-03-21T09:05:40.918Z,1003.01
2017-03-21T09:06:50.857Z,1003.07
2017-03-21T09:08:00.801Z,1003.06
2017-03-21T09:09:10.434Z,1003.1
2017-03-21T09:10:20.386Z,1003.05
2017-03-21T09:11:30.653Z,1003.03
2017-03-21T09:12:40.275Z,1003.08
2017-03-21T09:13:50.531Z,1003.1
2017-03-21T09:15:00.791Z,1003.09
2017-03-21T09:16:10.729Z,1003.18
2017-03-21T09:17:20.667Z,1003.13
2017-03-21T09:18:30.291Z,1003.18
2017-03-21T09:19:39.917Z,1003.14
2017-03-21T09:20:50.170Z,1003.14
2017-03-21T09:22:00.109Z,1003.1
2017-03-21T09:23:10.045Z,1003.12
2017-03-21T09:24:19.992Z,1003.03
2017-03-21T09:25:30.261Z,1003.02
2017-03-21T09:26:40.512Z,1003
2017-03-21T09:27:50.485Z,1002.97
2017-03-21T09:29:00.107Z,1002.96
2017-03-21T09:30:09.742Z,1002.92
2017-03-21T09:31:19.374Z,1002.92
2017-03-21T09:32:29.000Z,1002.9
2017-03-21T09:33:39.254Z,1002.9
2017-03-21T09:34:49.512Z,1002.89
2017-03-21T09:35:59.769Z,1002.81
2017-03-21T09:37:09.708Z,1002.83
2017-03-21T09:38:19.969Z,1002.86
2017-03-21T09:39:29.914Z,1002.86
2017-03-21T09:40:40.176Z,1002.84
2017-03-21T09:41:50.119Z,1002.81
2017-03-21T09:43:00.064Z,1002.83
2017-03-21T09:44:09.703Z,1002.76
2017-03-21T09:45:19.335Z,1002.71
2017-03-21T09:46:29.589Z,1002.76
2017-03-21T09:47:39.527Z,1002.79
2017-03-21T09:48:49.789Z,1002.91
2017-03-21T09:49:59.728Z,1002.96
2017-03-21T09:51:09.670Z,1003
2017-03-21T09:52:19.926Z,1003.01
2017-03-21T09:53:29.867Z,1002.99
2017-03-21T09:54:39.503Z,1002.99
2017-03-21T09:55:49.443Z,1003.03
2017-03-21T09:56:59.382Z,1002.99
2017-03-21T09:58:09.668Z,1003.01
2017-03-21T09:59:19.924Z,1002.96
2017-03-21T10:00:30.177Z,1002.98
2017-03-21T10:01:40.115Z,1002.93
2017-03-21T10:02:49.426Z,1002.97
2017-03-21T10:03:59.056Z,1002.98
2017-03-21T10:05:09.003Z,1003.01
2017-03-21T10:06:18.631Z,1002.96
2017-03-21T10:07:28.570Z,1003.02
2017-03-21T10:08:38.837Z,1003.03
2017-03-21T10:09:49.090Z,1003.08
2017-03-21T10:10:59.034Z,1003.12
2017-03-21T10:12:09.296Z,1003.06
2017-03-21T10:13:19.232Z,1003.1
2017-03-21T10:14:29.784Z,1003.14
2017-03-21T10:15:39.723Z,1003.15
2017-03-21T10:16:49.660Z,1003.18
2017-03-21T10:17:59.912Z,1003.23
2017-03-21T10:19:09.853Z,1003.28
2017-03-21T10:20:20.138Z,1003.29
2017-03-21T10:21:29.765Z,1003.3
2017-03-21T10:22:39.706Z,1003.33
2017-03-21T10:23:49.958Z,1003.31
2017-03-21T10:25:00.209Z,1003.35
2017-03-21T10:26:09.837Z,1003.39
2017-03-21T10:27:20.091Z,1003.37
2017-03-21T10:28:30.345Z,1003.42
2017-03-21T10:29:40.594Z,1003.43
2017-03-21T10:30:50.219Z,1003.43
2017-03-21T10:32:00.475Z,1003.4
2017-03-21T10:33:10.100Z,1003.4
2017-03-21T10:34:20.042Z,1003.42
2017-03-21T10:35:29.982Z,1003.42
2017-03-21T10:36:39.923Z,1003.38
2017-03-21T10:37:49.864Z,1003.39
2017-03-21T10:38:59.800Z,1003.43
2017-03-21T10:40:09.742Z,1003.43
2017-03-21T10:41:19.997Z,1003.41
2017-03-21T10:42:29.941Z,1003.43
2017-03-21T10:43:40.195Z,1003.4
2017-03-21T10:44:49.822Z,1003.43
2017-03-21T10:45:59.450Z,1003.4
2017-03-21T10:47:09.399Z,1003.42
2017-03-21T10:48:19.337Z,1003.49
2017-03-21T10:49:29.590Z,1003.39
2017-03-21T10:50:39.847Z,1003.38
2017-03-21T10:51:50.110Z,1003.42
2017-03-21T10:52:59.744Z,1003.32
2017-03-21T10:54:09.370Z,1003.33
2017-03-21T10:55:18.998Z,1003.32
2017-03-21T10:56:29.253Z,1003.33
2017-03-21T10:57:39.191Z,1003.35
2017-03-21T10:58:49.132Z,1003.43
2017-03-21T10:59:59.070Z,1003.34
2017-03-21T11:01:09.326Z,1003.33
2017-03-21T11:02:19.578Z,1003.34
2017-03-21T11:03:29.526Z,1003.36
2017-03-21T11:04:39.782Z,1003.36
2017-03-21T11:05:50.037Z,1003.34
2017-03-21T11:06:59.976Z,1003.31
2017-03-21T11:08:09.927Z,1003.29
2017-03-21T11:09:20.185Z,1003.38
2017-03-21T11:10:30.129Z,1003.41
2017-03-21T11:11:39.757Z,1003.42
2017-03-21T11:12:49.390Z,1003.5
2017-03-21T11:13:59.332Z,1003.49
2017-03-21T11:15:08.962Z,1003.43
2017-03-21T11:16:19.221Z,1003.38
2017-03-21T11:17:29.175Z,1003.48
2017-03-21T11:18:39.433Z,1003.37
2017-03-21T11:19:49.381Z,1003.37
2017-03-21T11:20:59.326Z,1003.45
2017-03-21T11:22:08.959Z,1003.48
2017-03-21T11:23:18.924Z,1003.36
2017-03-21T11:24:28.860Z,1003.38
2017-03-21T11:25:39.114Z,1003.48
2017-03-21T11:26:49.057Z,1003.41
2017-03-21T11:27:59.004Z,1003.41
2017-03-21T11:29:08.941Z,1003.48
2017-03-21T11:30:18.892Z,1003.47
2017-03-21T11:31:28.843Z,1003.49
2017-03-21T11:32:38.786Z,1003.49
2017-03-21T11:33:48.409Z,1003.59
2017-03-21T11:34:58.348Z,1003.54
2017-03-21T11:36:08.606Z,1003.57
2017-03-21T11:37:18.235Z,1003.55
2017-03-21T11:38:27.859Z,1003.55
2017-03-21T11:39:37.799Z,1003.58
2017-03-21T11:40:47.745Z,1003.6
2017-03-21T11:41:57.056Z,1003.56
2017-03-21T11:43:07.001Z,1003.61
2017-03-21T11:44:17.251Z,1003.58
2017-03-21T11:45:26.249Z,1003.6
2017-03-21T11:46:35.875Z,1003.62
2017-03-21T11:47:45.815Z,1003.66
2017-03-21T11:48:55.443Z,1003.62
2017-03-21T11:50:05.078Z,1003.63
2017-03-21T11:51:14.713Z,1003.68
2017-03-21T11:52:24.337Z,1003.67
2017-03-21T11:53:33.650Z,1003.67
2017-03-21T11:54:43.586Z,1003.68
2017-03-21T11:55:53.525Z,1003.67
2017-03-21T11:57:03.472Z,1003.67
2017-03-21T11:58:13.413Z,1003.71
2017-03-21T11:59:23.361Z,1003.67
2017-03-21T12:00:33.300Z,1003.68
2017-03-21T12:01:43.546Z,1003.64
2017-03-21T12:02:53.485Z,1003.64
2017-03-21T12:04:03.737Z,1003.71
2017-03-21T12:05:13.681Z,1003.62
2017-03-21T12:06:23.621Z,1003.63
2017-03-21T12:07:33.562Z,1003.66
2017-03-21T12:08:43.514Z,1003.69
2017-03-21T12:09:53.453Z,1003.7
2017-03-21T12:11:03.401Z,1003.68
2017-03-21T12:12:13.660Z,1003.68
2017-03-21T12:13:23.599Z,1003.68
2017-03-21T12:14:33.554Z,1003.63
2017-03-21T12:15:43.497Z,1003.63
2017-03-21T12:16:53.930Z,1003.64
2017-03-21T12:18:04.199Z,1003.6
2017-03-21T12:19:14.138Z,1003.62
2017-03-21T12:20:24.393Z,1003.57
2017-03-21T12:21:34.332Z,1003.59
2017-03-21T12:22:43.957Z,1003.53
2017-03-21T12:23:52.962Z,1003.54
2017-03-21T12:25:02.922Z,1003.53
2017-03-21T12:26:12.865Z,1003.55
2017-03-21T12:27:22.800Z,1003.57
2017-03-21T12:28:32.425Z,1003.57
2017-03-21T12:29:42.064Z,1003.59
2017-03-21T12:30:52.321Z,1003.63
2017-03-21T12:32:02.263Z,1003.67
2017-03-21T12:33:11.889Z,1003.65
2017-03-21T12:34:21.522Z,1003.65
2017-03-21T12:35:31.156Z,1003.71
2017-03-21T12:36:41.410Z,1003.65
2017-03-21T12:37:51.036Z,1003.69
2017-03-21T12:39:01.296Z,1003.67
2017-03-21T12:40:11.238Z,1003.64
2017-03-21T12:41:21.492Z,1003.63
2017-03-21T12:42:31.141Z,1003.63
2017-03-21T12:43:40.777Z,1003.61
2017-03-21T12:44:50.721Z,1003.62
2017-03-21T12:46:00.657Z,1003.63
2017-03-21T12:47:10.597Z,1003.66
2017-03-21T12:48:20.534Z,1003.59
2017-03-21T12:49:30.792Z,1003.59
2017-03-21T12:50:40.739Z,1003.54
2017-03-21T12:51:50.363Z,1003.44
2017-03-21T12:53:00.303Z,1003.43
2017-03-21T12:54:10.562Z,1003.39
2017-03-21T12:55:20.815Z,1003.38
2017-03-21T12:56:30.441Z,1003.4
2017-03-21T12:57:40.694Z,1003.42
2017-03-21T12:58:50.954Z,1003.47
2017-03-21T13:00:01.212Z,1003.41
2017-03-21T13:01:10.837Z,1003.44
2017-03-21T13:02:20.462Z,1003.39
2017-03-21T13:03:30.405Z,1003.36
2017-03-21T13:04:40.036Z,1003.33
2017-03-21T13:05:50.299Z,1003.29
2017-03-21T13:06:59.921Z,1003.25
2017-03-21T13:08:09.859Z,1003.23
2017-03-21T13:09:19.542Z,1003.19
2017-03-21T13:10:29.175Z,1003.23
2017-03-21T13:11:39.167Z,1003.2
2017-03-21T13:12:49.102Z,1003.22
2017-03-21T13:13:58.737Z,1003.34
2017-03-21T13:15:08.057Z,1003.3
2017-03-21T13:16:18.309Z,1003.34
2017-03-21T13:17:28.251Z,1003.39
2017-03-21T13:18:38.507Z,1003.45
2017-03-21T13:19:48.761Z,1003.5
2017-03-21T13:20:58.706Z,1003.42
2017-03-21T13:22:08.645Z,1003.45
2017-03-21T13:23:18.939Z,1003.47
2017-03-21T13:24:29.200Z,1003.44
2017-03-21T13:25:39.456Z,1003.44
2017-03-21T13:26:49.080Z,1003.44
2017-03-21T13:27:59.332Z,1003.47
2017-03-21T13:29:09.583Z,1003.5
2017-03-21T13:30:19.527Z,1003.48
2017-03-21T13:31:29.778Z,1003.51
2017-03-21T13:32:40.035Z,1003.52
2017-03-21T13:33:49.667Z,1003.46
2017-03-21T13:34:59.917Z,1003.43
2017-03-21T13:36:10.169Z,1003.46
2017-03-21T13:37:20.434Z,1003.42
2017-03-21T13:38:30.384Z,1003.45
2017-03-21T13:39:40.336Z,1003.47
2017-03-21T13:40:50.021Z,1003.5
2017-03-21T13:42:00.291Z,1003.57
2017-03-21T13:43:10.547Z,1003.57
2017-03-21T13:44:20.488Z,1003.61
2017-03-21T13:45:30.124Z,1003.59
2017-03-21T13:46:40.386Z,1003.6
2017-03-21T13:47:50.018Z,1003.57
2017-03-21T13:48:59.968Z,1003.54
2017-03-21T13:50:09.916Z,1003.55
2017-03-21T13:51:19.854Z,1003.46
2017-03-21T13:52:29.813Z,1003.5
2017-03-21T13:53:40.076Z,1003.47
2017-03-21T13:54:49.701Z,1003.4
2017-03-21T13:55:59.951Z,1003.38
2017-03-21T13:57:09.893Z,1003.34
2017-03-21T13:58:19.205Z,1003.32
2017-03-21T13:59:29.149Z,1003.35
2017-03-21T14:00:39.402Z,1003.42
2017-03-21T14:01:49.341Z,1003.44
2017-03-21T14:02:59.595Z,1003.51
2017-03-21T14:04:09.541Z,1003.47
2017-03-21T14:05:19.796Z,1003.38
2017-03-21T14:06:29.738Z,1003.27
2017-03-21T14:07:39.681Z,1003.08
2017-03-21T14:08:49.941Z,1002.95
2017-03-21T14:09:59.882Z,1003.04
2017-03-21T14:11:09.192Z,1003.17
2017-03-21T14:12:19.135Z,1003.3